sensor_id;sensor_type;location;lat;lon;timestamp;pressure;altitude;pressure_sealevel;temperature;humidity
59825;BME280;45703;50.898;6.054;2023-05-19T00:00:54;101079.16;;;9.94;70.73
59825;BME280;45703;50.898;6.054;2023-05-19T00:03:19;101082.00;;;9.92;70.94
59825;BME280;45703;50.898;6.054;2023-05-19T00:05:47;101083.25;;;9.90;70.81
59825;BME280;45703;50.898;6.054;2023-05-19T00:08:15;101075.81;;;9.85;71.19
59825;BME280;45703;50.898;6.054;2023-05-19T00:10:41;101077.84;;;9.83;70.86
59825;BME280;45703;50.898;6.054;2023-05-19T00:13:07;101073.31;;;9.77;71.09
59825;BME280;45703;50.898;6.054;2023-05-19T00:15:33;101081.94;;;9.79;71.48
59825;BME280;45703;50.898;6.054;2023-05-19T00:17:58;101072.91;;;9.74;71.40
59825;BME280;45703;50.898;6.054;2023-05-19T00:20:23;101084.75;;;9.71;71.51
59825;BME280;45703;50.898;6.054;2023-05-19T00:22:49;101071.75;;;9.62;72.06
59825;BME280;45703;50.898;6.054;2023-05-19T00:25:15;101081.00;;;9.59;71.74
59825;BME280;45703;50.898;6.054;2023-05-19T00:27:40;101075.19;;;9.49;71.99
59825;BME280;45703;50.898;6.054;2023-05-19T00:30:06;101077.22;;;9.47;72.32
59825;BME280;45703;50.898;6.054;2023-05-19T00:32:32;101070.19;;;9.40;72.40
59825;BME280;45703;50.898;6.054;2023-05-19T00:34:58;101079.56;;;9.36;72.83
59825;BME280;45703;50.898;6.054;2023-05-19T00:37:23;101075.44;;;9.33;72.62
59825;BME280;45703;50.898;6.054;2023-05-19T00:39:49;101078.50;;;9.30;72.80
59825;BME280;45703;50.898;6.054;2023-05-19T00:42:15;101082.94;;;9.23;72.52
59825;BME280;45703;50.898;6.054;2023-05-19T00:44:40;101080.66;;;9.20;73.01
59825;BME280;45703;50.898;6.054;2023-05-19T00:47:06;101079.19;;;9.18;73.23
59825;BME280;45703;50.898;6.054;2023-05-19T00:49:32;101080.59;;;9.14;73.27
59825;BME280;45703;50.898;6.054;2023-05-19T00:52:00;101074.84;;;9.10;73.83
59825;BME280;45703;50.898;6.054;2023-05-19T00:54:26;101068.25;;;9.06;73.38
59825;BME280;45703;50.898;6.054;2023-05-19T00:56:53;101065.34;;;9.01;73.85
59825;BME280;45703;50.898;6.054;2023-05-19T00:59:19;101074.34;;;9.00;73.77
59825;BME280;45703;50.898;6.054;2023-05-19T01:01:45;101067.31;;;8.93;73.97
59825;BME280;45703;50.898;6.054;2023-05-19T01:04:15;101060.50;;;8.90;74.02
59825;BME280;45703;50.898;6.054;2023-05-19T01:06:41;101058.03;;;8.89;74.12
59825;BME280;45703;50.898;6.054;2023-05-19T01:09:06;101065.03;;;8.90;74.22
59825;BME280;45703;50.898;6.054;2023-05-19T01:11:33;101052.84;;;8.81;74.34
59825;BME280;45703;50.898;6.054;2023-05-19T01:13:58;101065.97;;;8.82;74.15
59825;BME280;45703;50.898;6.054;2023-05-19T01:16:30;101062.22;;;8.77;74.38
59825;BME280;45703;50.898;6.054;2023-05-19T01:25:03;101058.69;;;8.70;75.43
59825;BME280;45703;50.898;6.054;2023-05-19T01:30:39;101049.91;;;8.55;74.96
59825;BME280;45703;50.898;6.054;2023-05-19T01:33:08;101045.81;;;8.53;75.47
59825;BME280;45703;50.898;6.054;2023-05-19T01:35:35;101061.50;;;8.48;75.07
59825;BME280;45703;50.898;6.054;2023-05-19T01:38:02;101059.56;;;8.42;75.36
59825;BME280;45703;50.898;6.054;2023-05-19T01:40:29;101057.13;;;8.40;75.35
59825;BME280;45703;50.898;6.054;2023-05-19T01:42:57;101069.56;;;8.40;75.21
59825;BME280;45703;50.898;6.054;2023-05-19T01:45:25;101061.34;;;8.35;75.30
59825;BME280;45703;50.898;6.054;2023-05-19T01:47:54;101063.72;;;8.30;75.39
59825;BME280;45703;50.898;6.054;2023-05-19T01:50:20;101058.78;;;8.27;75.51
59825;BME280;45703;50.898;6.054;2023-05-19T01:52:46;101064.94;;;8.27;75.64
59825;BME280;45703;50.898;6.054;2023-05-19T01:55:11;101071.44;;;8.25;75.36
59825;BME280;45703;50.898;6.054;2023-05-19T02:08:12;101049.34;;;8.10;76.06
59825;BME280;45703;50.898;6.054;2023-05-19T02:10:44;101053.00;;;8.09;76.28
59825;BME280;45703;50.898;6.054;2023-05-19T02:13:15;101049.06;;;8.05;75.98
59825;BME280;45703;50.898;6.054;2023-05-19T02:15:44;101047.44;;;8.04;76.44
59825;BME280;45703;50.898;6.054;2023-05-19T02:18:10;101050.00;;;7.97;76.47
59825;BME280;45703;50.898;6.054;2023-05-19T02:20:37;101049.34;;;7.95;76.38
59825;BME280;45703;50.898;6.054;2023-05-19T02:23:03;101055.88;;;7.93;76.46
59825;BME280;45703;50.898;6.054;2023-05-19T02:25:29;101049.63;;;7.86;76.56
59825;BME280;45703;50.898;6.054;2023-05-19T02:27:57;101055.31;;;7.83;76.47
59825;BME280;45703;50.898;6.054;2023-05-19T02:30:23;101046.41;;;7.76;76.72
59825;BME280;45703;50.898;6.054;2023-05-19T02:32:48;101059.81;;;7.82;76.80
59825;BME280;45703;50.898;6.054;2023-05-19T02:35:14;101052.22;;;7.79;76.85
59825;BME280;45703;50.898;6.054;2023-05-19T02:37:39;101041.03;;;7.69;77.04
59825;BME280;45703;50.898;6.054;2023-05-19T02:40:05;101035.72;;;7.69;76.68
59825;BME280;45703;50.898;6.054;2023-05-19T02:42:31;101035.88;;;7.68;76.99
59825;BME280;45703;50.898;6.054;2023-05-19T02:44:56;101032.59;;;7.66;76.92
59825;BME280;45703;50.898;6.054;2023-05-19T02:47:22;101045.50;;;7.69;77.08
59825;BME280;45703;50.898;6.054;2023-05-19T02:49:47;101038.53;;;7.68;77.02
59825;BME280;45703;50.898;6.054;2023-05-19T02:52:12;101029.66;;;7.61;77.66
59825;BME280;45703;50.898;6.054;2023-05-19T02:54:38;101038.00;;;7.58;77.35
59825;BME280;45703;50.898;6.054;2023-05-19T02:57:03;101039.38;;;7.54;77.53
59825;BME280;45703;50.898;6.054;2023-05-19T02:59:29;101044.69;;;7.54;77.77
59825;BME280;45703;50.898;6.054;2023-05-19T03:01:58;101047.72;;;7.51;77.88
59825;BME280;45703;50.898;6.054;2023-05-19T03:04:24;101037.16;;;7.43;78.15
59825;BME280;45703;50.898;6.054;2023-05-19T03:06:49;101052.53;;;7.47;77.78
59825;BME280;45703;50.898;6.054;2023-05-19T03:09:15;101056.41;;;7.45;79.15
59825;BME280;45703;50.898;6.054;2023-05-19T03:11:40;101048.81;;;7.42;78.48
59825;BME280;45703;50.898;6.054;2023-05-19T03:14:06;101037.88;;;7.37;78.40
59825;BME280;45703;50.898;6.054;2023-05-19T03:16:34;101042.00;;;7.39;78.58
59825;BME280;45703;50.898;6.054;2023-05-19T03:18:59;101038.88;;;7.36;78.55
59825;BME280;45703;50.898;6.054;2023-05-19T03:21:25;101040.88;;;7.34;78.79
59825;BME280;45703;50.898;6.054;2023-05-19T03:23:51;101041.44;;;7.29;79.06
59825;BME280;45703;50.898;6.054;2023-05-19T03:26:16;101032.00;;;7.27;78.85
59825;BME280;45703;50.898;6.054;2023-05-19T03:28:41;101047.19;;;7.33;78.74
59825;BME280;45703;50.898;6.054;2023-05-19T03:31:07;101036.94;;;7.30;78.59
59825;BME280;45703;50.898;6.054;2023-05-19T03:33:32;101035.94;;;7.31;78.87
59825;BME280;45703;50.898;6.054;2023-05-19T03:35:57;101038.22;;;7.34;78.60
59825;BME280;45703;50.898;6.054;2023-05-19T03:38:23;101032.28;;;7.32;78.46
59825;BME280;45703;50.898;6.054;2023-05-19T03:40:49;101039.06;;;7.34;78.69
59825;BME280;45703;50.898;6.054;2023-05-19T03:43:14;101037.88;;;7.37;78.68
59825;BME280;45703;50.898;6.054;2023-05-19T03:45:40;101038.06;;;7.35;78.54
59825;BME280;45703;50.898;6.054;2023-05-19T03:48:06;101049.50;;;7.36;79.00
59825;BME280;45703;50.898;6.054;2023-05-19T03:50:32;101047.69;;;7.36;78.82
59825;BME280;45703;50.898;6.054;2023-05-19T03:52:58;101044.38;;;7.34;79.08
59825;BME280;45703;50.898;6.054;2023-05-19T03:55:24;101053.78;;;7.37;79.23
59825;BME280;45703;50.898;6.054;2023-05-19T03:57:50;101044.53;;;7.33;78.74
59825;BME280;45703;50.898;6.054;2023-05-19T04:00:17;101051.78;;;7.39;78.91
59825;BME280;45703;50.898;6.054;2023-05-19T04:02:42;101042.53;;;7.35;79.26
59825;BME280;45703;50.898;6.054;2023-05-19T04:05:08;101048.16;;;7.40;79.12
59825;BME280;45703;50.898;6.054;2023-05-19T04:07:34;101044.81;;;7.38;79.37
59825;BME280;45703;50.898;6.054;2023-05-19T04:10:01;101040.06;;;7.33;79.42
59825;BME280;45703;50.898;6.054;2023-05-19T04:12:26;101054.63;;;7.37;79.50
59825;BME280;45703;50.898;6.054;2023-05-19T04:14:52;101052.50;;;7.33;79.67
59825;BME280;45703;50.898;6.054;2023-05-19T04:17:17;101063.63;;;7.36;79.64
59825;BME280;45703;50.898;6.054;2023-05-19T04:19:43;101051.22;;;7.29;79.93
59825;BME280;45703;50.898;6.054;2023-05-19T04:22:08;101052.50;;;7.33;79.90
59825;BME280;45703;50.898;6.054;2023-05-19T04:24:33;101052.50;;;7.33;79.86
59825;BME280;45703;50.898;6.054;2023-05-19T04:26:59;101062.41;;;7.39;79.73
59825;BME280;45703;50.898;6.054;2023-05-19T04:29:29;101071.88;;;7.41;80.20
59825;BME280;45703;50.898;6.054;2023-05-19T04:31:54;101066.19;;;7.44;80.27
59825;BME280;45703;50.898;6.054;2023-05-19T04:34:21;101062.09;;;7.42;80.44
59825;BME280;45703;50.898;6.054;2023-05-19T04:36:46;101067.31;;;7.50;80.70
59825;BME280;45703;50.898;6.054;2023-05-19T04:39:12;101072.25;;;7.53;80.43
59825;BME280;45703;50.898;6.054;2023-05-19T04:41:38;101062.16;;;7.48;80.48
59825;BME280;45703;50.898;6.054;2023-05-19T04:44:05;101069.03;;;7.57;80.89
59825;BME280;45703;50.898;6.054;2023-05-19T04:46:31;101069.16;;;7.64;80.68
59825;BME280;45703;50.898;6.054;2023-05-19T04:48:57;101070.44;;;7.68;80.51
59825;BME280;45703;50.898;6.054;2023-05-19T04:51:28;101057.16;;;7.68;80.57
59825;BME280;45703;50.898;6.054;2023-05-19T04:53:56;101062.38;;;7.76;79.82
59825;BME280;45703;50.898;6.054;2023-05-19T04:56:22;101062.28;;;7.84;80.65
59825;BME280;45703;50.898;6.054;2023-05-19T04:58:48;101062.19;;;7.92;80.84
59825;BME280;45703;50.898;6.054;2023-05-19T05:01:13;101065.78;;;7.99;81.08
59825;BME280;45703;50.898;6.054;2023-05-19T05:03:40;101064.19;;;8.04;80.83
59825;BME280;45703;50.898;6.054;2023-05-19T05:06:06;101063.28;;;8.12;80.85
59825;BME280;45703;50.898;6.054;2023-05-19T05:08:32;101072.84;;;8.21;80.82
59825;BME280;45703;50.898;6.054;2023-05-19T05:10:57;101063.09;;;8.28;80.42
59825;BME280;45703;50.898;6.054;2023-05-19T05:13:23;101064.19;;;8.33;79.53
59825;BME280;45703;50.898;6.054;2023-05-19T05:15:49;101058.94;;;8.40;81.62
59825;BME280;45703;50.898;6.054;2023-05-19T05:18:17;101059.03;;;8.46;79.62
59825;BME280;45703;50.898;6.054;2023-05-19T05:20:44;101059.91;;;8.53;79.41
59825;BME280;45703;50.898;6.054;2023-05-19T05:23:10;101052.19;;;8.58;80.18
59825;BME280;45703;50.898;6.054;2023-05-19T05:25:42;101050.25;;;8.66;79.13
59825;BME280;45703;50.898;6.054;2023-05-19T05:28:08;101060.59;;;8.76;81.40
59825;BME280;45703;50.898;6.054;2023-05-19T05:30:34;101055.31;;;8.82;79.50
59825;BME280;45703;50.898;6.054;2023-05-19T05:33:00;101058.22;;;8.87;79.65
59825;BME280;45703;50.898;6.054;2023-05-19T05:35:26;101053.34;;;8.91;79.40
59825;BME280;45703;50.898;6.054;2023-05-19T05:37:52;101059.38;;;8.99;79.81
59825;BME280;45703;50.898;6.054;2023-05-19T05:40:17;101047.34;;;9.03;78.65
59825;BME280;45703;50.898;6.054;2023-05-19T05:42:43;101051.50;;;9.12;79.14
59825;BME280;45703;50.898;6.054;2023-05-19T05:45:08;101038.81;;;9.14;78.82
59825;BME280;45703;50.898;6.054;2023-05-19T05:47:34;101041.34;;;9.22;81.33
59825;BME280;45703;50.898;6.054;2023-05-19T05:50:07;101047.16;;;9.32;79.29
59825;BME280;45703;50.898;6.054;2023-05-19T05:52:35;101039.41;;;9.37;77.54
59825;BME280;45703;50.898;6.054;2023-05-19T05:55:00;101043.19;;;9.49;78.44
59825;BME280;45703;50.898;6.054;2023-05-19T05:57:26;101033.56;;;9.55;78.89
59825;BME280;45703;50.898;6.054;2023-05-19T05:59:55;101037.16;;;9.68;78.32
59825;BME280;45703;50.898;6.054;2023-05-19T06:02:20;101026.94;;;9.72;77.93
59825;BME280;45703;50.898;6.054;2023-05-19T06:04:46;101026.16;;;9.84;77.00
59825;BME280;45703;50.898;6.054;2023-05-19T06:07:11;101038.56;;;9.98;76.96
59825;BME280;45703;50.898;6.054;2023-05-19T06:09:37;101036.38;;;10.08;76.68
59825;BME280;45703;50.898;6.054;2023-05-19T06:12:02;101046.47;;;10.19;75.43
59825;BME280;45703;50.898;6.054;2023-05-19T06:14:28;101043.63;;;10.27;76.83
59825;BME280;45703;50.898;6.054;2023-05-19T06:16:53;101042.44;;;10.36;76.22
59825;BME280;45703;50.898;6.054;2023-05-19T06:19:19;101041.63;;;10.42;77.46
59825;BME280;45703;50.898;6.054;2023-05-19T06:21:45;101051.13;;;10.51;75.76
59825;BME280;45703;50.898;6.054;2023-05-19T06:24:10;101048.28;;;10.59;75.33
59825;BME280;45703;50.898;6.054;2023-05-19T06:26:36;101052.81;;;10.65;75.99
59825;BME280;45703;50.898;6.054;2023-05-19T06:29:02;101054.03;;;10.69;74.77
59825;BME280;45703;50.898;6.054;2023-05-19T06:31:28;101043.97;;;10.71;74.46
59825;BME280;45703;50.898;6.054;2023-05-19T06:33:53;101049.97;;;10.79;74.18
59825;BME280;45703;50.898;6.054;2023-05-19T06:36:19;101052.63;;;10.86;73.81
59825;BME280;45703;50.898;6.054;2023-05-19T06:38:44;101051.19;;;10.90;73.71
59825;BME280;45703;50.898;6.054;2023-05-19T06:41:09;101050.38;;;10.96;74.19
59825;BME280;45703;50.898;6.054;2023-05-19T06:43:35;101054.69;;;10.97;75.86
59825;BME280;45703;50.898;6.054;2023-05-19T06:46:00;101049.59;;;11.02;75.92
59825;BME280;45703;50.898;6.054;2023-05-19T06:48:26;101045.06;;;11.02;76.05
59825;BME280;45703;50.898;6.054;2023-05-19T06:50:51;101053.28;;;11.14;73.94
59825;BME280;45703;50.898;6.054;2023-05-19T06:53:18;101050.81;;;11.19;72.98
59825;BME280;45703;50.898;6.054;2023-05-19T06:55:44;101052.88;;;11.30;75.28
59825;BME280;45703;50.898;6.054;2023-05-19T06:58:09;101054.72;;;11.36;74.14
59825;BME280;45703;50.898;6.054;2023-05-19T07:00:35;101060.69;;;11.44;72.99
59825;BME280;45703;50.898;6.054;2023-05-19T07:03:00;101060.69;;;11.50;72.43
59825;BME280;45703;50.898;6.054;2023-05-19T07:05:26;101054.13;;;11.59;72.87
59825;BME280;45703;50.898;6.054;2023-05-19T07:07:51;101047.75;;;11.60;72.02
59825;BME280;45703;50.898;6.054;2023-05-19T07:10:17;101056.16;;;11.70;72.32
59825;BME280;45703;50.898;6.054;2023-05-19T07:12:42;101056.97;;;11.77;72.00
59825;BME280;45703;50.898;6.054;2023-05-19T07:15:08;101047.28;;;11.83;73.57
59825;BME280;45703;50.898;6.054;2023-05-19T07:17:33;101055.69;;;11.93;71.45
59825;BME280;45703;50.898;6.054;2023-05-19T07:19:59;101048.28;;;11.95;73.44
59825;BME280;45703;50.898;6.054;2023-05-19T07:22:25;101053.59;;;12.08;71.99
59825;BME280;45703;50.898;6.054;2023-05-19T07:24:51;101050.06;;;12.14;71.59
59825;BME280;45703;50.898;6.054;2023-05-19T07:27:17;101049.03;;;12.21;72.02
59825;BME280;45703;50.898;6.054;2023-05-19T07:29:42;101045.28;;;12.29;71.51
59825;BME280;45703;50.898;6.054;2023-05-19T07:32:07;101051.00;;;12.39;71.15
59825;BME280;45703;50.898;6.054;2023-05-19T07:34:33;101050.34;;;12.43;72.22
59825;BME280;45703;50.898;6.054;2023-05-19T07:36:58;101056.47;;;12.57;70.45
59825;BME280;45703;50.898;6.054;2023-05-19T07:39:24;101046.34;;;12.65;70.46
59825;BME280;45703;50.898;6.054;2023-05-19T07:41:53;101044.25;;;12.67;69.93
59825;BME280;45703;50.898;6.054;2023-05-19T07:44:20;101034.94;;;12.76;70.55
59825;BME280;45703;50.898;6.054;2023-05-19T07:46:46;101035.69;;;12.83;70.14
59825;BME280;45703;50.898;6.054;2023-05-19T07:49:11;101033.63;;;12.92;69.66
59825;BME280;45703;50.898;6.054;2023-05-19T07:51:37;101043.44;;;13.04;70.18
59825;BME280;45703;50.898;6.054;2023-05-19T07:54:02;101038.25;;;13.09;69.39
59825;BME280;45703;50.898;6.054;2023-05-19T07:56:28;101036.75;;;13.13;69.91
59825;BME280;45703;50.898;6.054;2023-05-19T07:58:53;101044.25;;;13.29;70.28
59825;BME280;45703;50.898;6.054;2023-05-19T08:01:19;101038.00;;;13.35;68.68
59825;BME280;45703;50.898;6.054;2023-05-19T08:03:44;101029.47;;;13.44;68.98
59825;BME280;45703;50.898;6.054;2023-05-19T08:06:10;101037.41;;;13.57;68.80
59825;BME280;45703;50.898;6.054;2023-05-19T08:08:35;101027.06;;;13.61;68.35
59825;BME280;45703;50.898;6.054;2023-05-19T08:11:02;101029.00;;;13.72;68.11
59825;BME280;45703;50.898;6.054;2023-05-19T08:13:29;101030.59;;;13.79;68.01
59825;BME280;45703;50.898;6.054;2023-05-19T08:15:54;101035.88;;;13.86;67.34
59825;BME280;45703;50.898;6.054;2023-05-19T08:18:26;101037.06;;;13.90;67.67
59825;BME280;45703;50.898;6.054;2023-05-19T08:20:51;101042.34;;;13.96;67.21
59825;BME280;45703;50.898;6.054;2023-05-19T08:23:17;101037.59;;;13.98;66.68
59825;BME280;45703;50.898;6.054;2023-05-19T08:25:43;101036.91;;;14.03;66.38
59825;BME280;45703;50.898;6.054;2023-05-19T08:28:08;101033.56;;;14.07;66.54
59825;BME280;45703;50.898;6.054;2023-05-19T08:30:34;101035.59;;;14.12;65.90
59825;BME280;45703;50.898;6.054;2023-05-19T08:32:59;101037.59;;;14.16;65.76
59825;BME280;45703;50.898;6.054;2023-05-19T08:35:25;101035.06;;;14.21;66.08
59825;BME280;45703;50.898;6.054;2023-05-19T08:37:50;101017.53;;;14.19;64.99
59825;BME280;45703;50.898;6.054;2023-05-19T08:40:17;101030.81;;;14.32;65.01
59825;BME280;45703;50.898;6.054;2023-05-19T08:42:46;101019.59;;;14.35;65.45
59825;BME280;45703;50.898;6.054;2023-05-19T08:45:11;101020.56;;;14.40;64.37
59825;BME280;45703;50.898;6.054;2023-05-19T08:47:37;101010.19;;;14.43;64.40
59825;BME280;45703;50.898;6.054;2023-05-19T08:50:05;101016.16;;;14.45;64.74
59825;BME280;45703;50.898;6.054;2023-05-19T08:52:41;101006.44;;;14.44;63.72
59825;BME280;45703;50.898;6.054;2023-05-19T08:55:17;101008.13;;;14.57;64.61
59825;BME280;45703;50.898;6.054;2023-05-19T08:57:47;101000.66;;;14.59;64.28
59825;BME280;45703;50.898;6.054;2023-05-19T09:00:14;101002.56;;;14.70;64.53
59825;BME280;45703;50.898;6.054;2023-05-19T09:02:40;100993.25;;;14.72;64.10
59825;BME280;45703;50.898;6.054;2023-05-19T09:05:07;100995.13;;;14.83;63.83
59825;BME280;45703;50.898;6.054;2023-05-19T09:07:37;100993.16;;;14.90;63.46
59825;BME280;45703;50.898;6.054;2023-05-19T09:10:03;100988.16;;;14.94;63.76
59825;BME280;45703;50.898;6.054;2023-05-19T09:12:30;100991.19;;;14.97;62.70
59825;BME280;45703;50.898;6.054;2023-05-19T09:14:56;100982.31;;;14.97;62.46
59825;BME280;45703;50.898;6.054;2023-05-19T09:17:22;100988.75;;;15.07;62.78
59825;BME280;45703;50.898;6.054;2023-05-19T09:19:47;100991.56;;;15.12;62.75
59825;BME280;45703;50.898;6.054;2023-05-19T09:22:15;100986.91;;;15.19;62.09
59825;BME280;45703;50.898;6.054;2023-05-19T09:24:43;100984.31;;;15.24;62.56
59825;BME280;45703;50.898;6.054;2023-05-19T09:27:08;100986.47;;;15.34;62.72
59825;BME280;45703;50.898;6.054;2023-05-19T09:29:34;100970.91;;;15.36;61.57
59825;BME280;45703;50.898;6.054;2023-05-19T09:31:59;100965.53;;;15.36;60.81
59825;BME280;45703;50.898;6.054;2023-05-19T09:34:28;100973.84;;;15.46;61.38
59825;BME280;45703;50.898;6.054;2023-05-19T09:36:53;100978.97;;;15.47;60.45
59825;BME280;45703;50.898;6.054;2023-05-19T09:39:21;100973.56;;;15.47;59.27
59825;BME280;45703;50.898;6.054;2023-05-19T09:41:54;100966.91;;;15.50;60.28
59825;BME280;45703;50.898;6.054;2023-05-19T09:44:21;100963.06;;;15.57;61.63
59825;BME280;45703;50.898;6.054;2023-05-19T09:46:55;100961.63;;;15.66;60.93
59825;BME280;45703;50.898;6.054;2023-05-19T09:49:25;100964.06;;;15.79;61.14
59825;BME280;45703;50.898;6.054;2023-05-19T09:51:58;100967.44;;;15.86;60.52
59825;BME280;45703;50.898;6.054;2023-05-19T09:54:24;100966.75;;;15.91;59.22
59825;BME280;45703;50.898;6.054;2023-05-19T09:57:01;100971.88;;;15.92;60.04
59825;BME280;45703;50.898;6.054;2023-05-19T09:59:28;100978.41;;;15.96;59.38
59825;BME280;45703;50.898;6.054;2023-05-19T10:01:56;100975.81;;;16.01;59.95
59825;BME280;45703;50.898;6.054;2023-05-19T10:04:24;100974.06;;;16.06;59.35
59825;BME280;45703;50.898;6.054;2023-05-19T10:06:55;100970.66;;;16.11;60.26
59825;BME280;45703;50.898;6.054;2023-05-19T10:09:25;100966.53;;;16.20;58.29
59825;BME280;45703;50.898;6.054;2023-05-19T10:11:51;100957.88;;;16.18;58.30
59825;BME280;45703;50.898;6.054;2023-05-19T10:14:21;100960.97;;;16.26;58.33
59825;BME280;45703;50.898;6.054;2023-05-19T10:16:49;100959.03;;;16.33;59.31
59825;BME280;45703;50.898;6.054;2023-05-19T10:19:16;100946.13;;;16.35;58.66
59825;BME280;45703;50.898;6.054;2023-05-19T10:21:44;100951.84;;;16.39;56.24
59825;BME280;45703;50.898;6.054;2023-05-19T10:24:10;100945.88;;;16.37;57.70
59825;BME280;45703;50.898;6.054;2023-05-19T10:26:36;100943.75;;;16.39;58.36
59825;BME280;45703;50.898;6.054;2023-05-19T10:29:03;100944.97;;;16.48;58.96
59825;BME280;45703;50.898;6.054;2023-05-19T10:31:30;100938.97;;;16.57;57.93
59825;BME280;45703;50.898;6.054;2023-05-19T10:39:28;100939.97;;;16.84;58.19
59825;BME280;45703;50.898;6.054;2023-05-19T10:42:15;100935.53;;;16.95;58.49
59825;BME280;45703;50.898;6.054;2023-05-19T10:45:01;100934.91;;;17.04;58.06
59825;BME280;45703;50.898;6.054;2023-05-19T10:47:30;100940.22;;;17.16;57.31
59825;BME280;45703;50.898;6.054;2023-05-19T10:49:59;100931.94;;;17.22;56.95
59825;BME280;45703;50.898;6.054;2023-05-19T10:52:24;100938.16;;;17.23;56.44
59825;BME280;45703;50.898;6.054;2023-05-19T10:54:50;100933.13;;;17.31;57.00
59825;BME280;45703;50.898;6.054;2023-05-19T10:57:19;100923.13;;;17.43;57.41
59825;BME280;45703;50.898;6.054;2023-05-19T10:59:49;100921.59;;;17.52;55.92
59825;BME280;45703;50.898;6.054;2023-05-19T11:05:07;100919.59;;;17.64;56.54
59825;BME280;45703;50.898;6.054;2023-05-19T11:07:33;100908.97;;;17.57;54.99
59825;BME280;45703;50.898;6.054;2023-05-19T11:10:04;100922.25;;;17.59;55.69
59825;BME280;45703;50.898;6.054;2023-05-19T11:12:39;100914.19;;;17.42;54.30
59825;BME280;45703;50.898;6.054;2023-05-19T11:15:07;100925.88;;;17.32;54.29
59825;BME280;45703;50.898;6.054;2023-05-19T11:17:34;100921.28;;;17.32;55.49
59825;BME280;45703;50.898;6.054;2023-05-19T11:19:59;100927.59;;;17.38;55.64
59825;BME280;45703;50.898;6.054;2023-05-19T11:22:26;100919.34;;;17.44;55.51
59825;BME280;45703;50.898;6.054;2023-05-19T11:24:55;100917.63;;;17.59;56.16
59825;BME280;45703;50.898;6.054;2023-05-19T11:27:31;100925.13;;;17.74;56.63
59825;BME280;45703;50.898;6.054;2023-05-19T11:30:07;100911.25;;;17.87;54.41
59825;BME280;45703;50.898;6.054;2023-05-19T11:32:36;100910.66;;;18.06;54.52
59825;BME280;45703;50.898;6.054;2023-05-19T11:35:06;100907.31;;;18.21;55.90
59825;BME280;45703;50.898;6.054;2023-05-19T11:37:32;100903.41;;;18.33;53.23
59825;BME280;45703;50.898;6.054;2023-05-19T11:40:02;100901.94;;;18.47;53.17
59825;BME280;45703;50.898;6.054;2023-05-19T11:42:30;100904.72;;;18.57;54.47
59825;BME280;45703;50.898;6.054;2023-05-19T11:44:56;100908.09;;;18.69;54.47
59825;BME280;45703;50.898;6.054;2023-05-19T11:47:21;100899.50;;;18.77;53.48
59825;BME280;45703;50.898;6.054;2023-05-19T11:49:47;100900.84;;;18.80;52.45
59825;BME280;45703;50.898;6.054;2023-05-19T11:52:13;100901.16;;;18.83;52.53
59825;BME280;45703;50.898;6.054;2023-05-19T11:54:39;100896.38;;;18.95;50.97
59825;BME280;45703;50.898;6.054;2023-05-19T11:57:08;100899.94;;;19.00;53.50
59825;BME280;45703;50.898;6.054;2023-05-19T11:59:36;100886.94;;;18.97;50.72
59825;BME280;45703;50.898;6.054;2023-05-19T12:02:23;100886.41;;;19.00;54.37
59825;BME280;45703;50.898;6.054;2023-05-19T12:04:50;100882.94;;;19.10;53.06
59825;BME280;45703;50.898;6.054;2023-05-19T12:07:17;100867.63;;;19.20;51.33
59825;BME280;45703;50.898;6.054;2023-05-19T12:09:46;100873.97;;;19.41;52.53
59825;BME280;45703;50.898;6.054;2023-05-19T12:12:13;100868.31;;;19.47;51.64
59825;BME280;45703;50.898;6.054;2023-05-19T12:14:39;100872.09;;;19.46;49.72
59825;BME280;45703;50.898;6.054;2023-05-19T12:17:11;100874.03;;;19.56;52.79
59825;BME280;45703;50.898;6.054;2023-05-19T12:19:39;100862.97;;;19.62;50.35
59825;BME280;45703;50.898;6.054;2023-05-19T12:22:06;100864.91;;;19.77;49.80
59825;BME280;45703;50.898;6.054;2023-05-19T12:24:36;100871.22;;;19.92;52.30
59825;BME280;45703;50.898;6.054;2023-05-19T12:27:13;100861.69;;;19.90;48.75
59825;BME280;45703;50.898;6.054;2023-05-19T12:29:41;100863.88;;;19.88;47.06
59825;BME280;45703;50.898;6.054;2023-05-19T12:32:07;100859.78;;;19.85;47.36
59825;BME280;45703;50.898;6.054;2023-05-19T12:34:36;100847.28;;;19.74;49.21
59825;BME280;45703;50.898;6.054;2023-05-19T12:37:03;100853.50;;;19.65;47.44
59825;BME280;45703;50.898;6.054;2023-05-19T12:39:29;100860.81;;;19.69;48.68
59825;BME280;45703;50.898;6.054;2023-05-19T12:42:07;100853.50;;;19.70;48.56
59825;BME280;45703;50.898;6.054;2023-05-19T12:44:37;100854.00;;;19.62;47.56
59825;BME280;45703;50.898;6.054;2023-05-19T12:47:04;100841.00;;;19.64;47.71
59825;BME280;45703;50.898;6.054;2023-05-19T12:49:32;100837.78;;;19.67;48.72
59825;BME280;45703;50.898;6.054;2023-05-19T12:52:00;100848.38;;;19.78;49.51
59825;BME280;45703;50.898;6.054;2023-05-19T12:54:26;100848.41;;;19.88;48.42
59825;BME280;45703;50.898;6.054;2023-05-19T12:56:51;100846.50;;;19.84;46.24
59825;BME280;45703;50.898;6.054;2023-05-19T12:59:23;100846.81;;;19.92;48.00
59825;BME280;45703;50.898;6.054;2023-05-19T13:01:56;100838.16;;;19.95;47.94
59825;BME280;45703;50.898;6.054;2023-05-19T13:04:22;100828.38;;;19.94;45.53
59825;BME280;45703;50.898;6.054;2023-05-19T13:06:47;100837.91;;;20.02;47.45
59825;BME280;45703;50.898;6.054;2023-05-19T13:09:14;100838.44;;;20.09;46.77
59825;BME280;45703;50.898;6.054;2023-05-19T13:11:41;100835.75;;;20.14;47.17
59825;BME280;45703;50.898;6.054;2023-05-19T13:14:08;100835.75;;;20.14;44.60
59825;BME280;45703;50.898;6.054;2023-05-19T13:16:34;100826.28;;;20.16;46.02
59825;BME280;45703;50.898;6.054;2023-05-19T13:18:59;100825.72;;;20.14;43.72
59825;BME280;45703;50.898;6.054;2023-05-19T13:21:25;100827.91;;;20.12;45.53